createdAt,value
2022-09-30T00:04:05.218Z,5.94
2022-09-30T00:09:05.272Z,5.43
2022-09-30T00:14:05.191Z,5.16
2022-09-30T00:19:05.190Z,5.05
2022-09-30T00:24:05.195Z,4.86
2022-09-30T00:29:05.198Z,4.65
2022-09-30T00:34:05.196Z,4.92
2022-09-30T00:39:05.201Z,4.53
2022-09-30T00:44:05.203Z,4.9
2022-09-30T00:49:05.208Z,5.95
2022-09-30T00:54:05.211Z,4.88
2022-09-30T00:59:05.213Z,4.83
2022-09-30T01:04:05.242Z,4.72
2022-09-30T01:09:05.325Z,4.57
2022-09-30T01:14:05.229Z,4.82
2022-09-30T01:19:05.221Z,4.6
2022-09-30T01:24:05.226Z,4.83
2022-09-30T01:29:05.240Z,4.82
2022-09-30T01:34:05.232Z,4.55
2022-09-30T01:39:05.235Z,5.1
2022-09-30T01:44:05.242Z,5.89
2022-09-30T01:49:05.235Z,5.63
2022-09-30T01:54:05.253Z,5.97
2022-09-30T01:59:05.269Z,5.9
2022-09-30T02:04:05.250Z,5.9
2022-09-30T02:09:05.277Z,6.24
2022-09-30T02:14:05.252Z,6.51
2022-09-30T02:19:05.248Z,6.91
2022-09-30T02:24:05.260Z,6.32
2022-09-30T02:29:05.259Z,6.35
2022-09-30T02:34:05.248Z,7.05
2022-09-30T02:39:05.320Z,6.7
2022-09-30T02:44:05.259Z,6.2
2022-09-30T02:49:05.268Z,6.03
2022-09-30T02:54:05.303Z,5.91
2022-09-30T02:59:05.294Z,6.15
2022-09-30T03:04:05.296Z,6.52
2022-09-30T03:09:05.335Z,6.06
2022-09-30T03:14:05.282Z,6.02
2022-09-30T03:19:05.279Z,6.11
2022-09-30T03:24:05.272Z,6.19
2022-09-30T03:29:05.291Z,6.53
2022-09-30T03:34:05.306Z,5.82
2022-09-30T03:39:05.315Z,5.69
2022-09-30T03:44:05.282Z,5.4
2022-09-30T03:49:05.317Z,5.43
2022-09-30T03:54:05.300Z,5.82
2022-09-30T03:59:05.287Z,5.56
2022-09-30T04:04:05.294Z,5.64
2022-09-30T04:09:05.348Z,5.58
2022-09-30T04:14:05.306Z,5.44
2022-09-30T04:19:05.338Z,5.02
2022-09-30T04:24:05.309Z,5.06
2022-09-30T04:29:05.340Z,4.57
2022-09-30T04:34:05.309Z,4.4
2022-09-30T04:39:05.316Z,4.63
2022-09-30T04:44:05.318Z,4.66
2022-09-30T04:49:08.654Z,4.12
2022-09-30T04:54:05.372Z,3.88
2022-09-30T04:59:05.334Z,4.08
2022-09-30T05:04:05.322Z,3.77
2022-09-30T05:09:05.388Z,3.62
2022-09-30T05:14:05.334Z,3.34
2022-09-30T05:19:05.325Z,3.2
2022-09-30T05:24:05.361Z,3.11
2022-09-30T05:29:05.337Z,2.98
2022-09-30T05:34:05.332Z,2.68
2022-09-30T05:39:05.345Z,2.83
2022-09-30T05:44:05.342Z,2.4
2022-09-30T05:49:05.341Z,2.3
2022-09-30T05:54:05.346Z,2.36
2022-09-30T05:59:05.347Z,2.15
2022-09-30T06:04:05.349Z,2.3
2022-09-30T06:09:05.403Z,2.16
2022-09-30T06:14:05.365Z,1.89
2022-09-30T06:19:05.354Z,2.08
2022-09-30T06:24:05.390Z,1.9
2022-09-30T06:29:05.388Z,1.93
2022-09-30T06:34:05.364Z,1.81
2022-09-30T06:39:07.249Z,1.87
2022-09-30T06:44:05.413Z,1.77
2022-09-30T06:49:11.019Z,1.73
2022-09-30T06:54:05.371Z,1.81
2022-09-30T06:59:05.372Z,1.64
2022-09-30T07:04:05.383Z,1.63
2022-09-30T07:09:05.437Z,1.74
2022-09-30T07:14:05.379Z,1.76
2022-09-30T07:19:05.379Z,1.67
2022-09-30T07:24:05.425Z,1.69
2022-09-30T07:29:05.419Z,1.57
2022-09-30T07:34:05.441Z,1.63
2022-09-30T07:39:05.649Z,1.44
2022-09-30T07:44:05.385Z,1.33
2022-09-30T07:49:05.403Z,1.47
2022-09-30T07:54:05.397Z,1.59
2022-09-30T07:59:05.427Z,1.43
2022-09-30T08:04:05.438Z,1.48
2022-09-30T08:09:05.470Z,1.62
2022-09-30T08:14:05.405Z,1.53
2022-09-30T08:19:05.401Z,1.64
2022-09-30T08:24:05.441Z,1.56
2022-09-30T08:29:05.430Z,1.65
2022-09-30T08:34:05.445Z,1.52
2022-09-30T08:39:05.450Z,1.53
2022-09-30T08:44:05.453Z,1.59
2022-09-30T08:49:05.468Z,1.64
2022-09-30T08:54:05.466Z,1.6
2022-09-30T08:59:05.438Z,1.54
2022-09-30T09:04:05.431Z,1.55
2022-09-30T09:09:05.432Z,1.56
2022-09-30T09:14:05.448Z,1.65
2022-09-30T09:19:05.435Z,1.73
2022-09-30T09:24:05.475Z,1.72
2022-09-30T09:29:05.482Z,1.81
2022-09-30T09:34:05.496Z,1.64
2022-09-30T09:39:05.482Z,1.53
2022-09-30T09:44:05.454Z,1.6
2022-09-30T09:49:05.472Z,1.75
2022-09-30T09:54:05.474Z,1.44
2022-09-30T09:59:05.456Z,1.56
2022-09-30T10:04:05.472Z,1.38
2022-09-30T10:09:05.460Z,1.54
2022-09-30T10:14:05.473Z,1.35
2022-09-30T10:19:09.388Z,1.49
2022-09-30T10:24:05.493Z,1.53
2022-09-30T10:29:05.469Z,1.52
2022-09-30T10:34:05.486Z,1.59
2022-09-30T10:39:06.546Z,1.65
2022-09-30T10:44:05.474Z,1.66
2022-09-30T10:49:05.481Z,1.54
2022-09-30T10:54:05.491Z,2.15
2022-09-30T10:59:05.492Z,2.14
2022-09-30T11:04:05.487Z,2.43
2022-09-30T11:09:05.500Z,2.96
2022-09-30T11:14:05.506Z,3.2
2022-09-30T11:19:05.508Z,3.42
2022-09-30T11:24:05.494Z,3.51
2022-09-30T11:29:05.511Z,3.27
2022-09-30T11:34:05.499Z,3.11
2022-09-30T11:39:05.501Z,3.13
2022-09-30T11:44:05.510Z,3.16
2022-09-30T11:49:05.522Z,2.79
2022-09-30T11:54:05.516Z,3.07
2022-09-30T11:59:05.541Z,2.89
2022-09-30T12:04:05.545Z,2.9
2022-09-30T12:09:05.550Z,2.53
2022-09-30T12:14:05.534Z,2.59
2022-09-30T12:19:05.524Z,2.68
2022-09-30T12:24:05.556Z,2.56
2022-09-30T12:29:05.539Z,2.34
2022-09-30T12:34:05.531Z,2.6
2022-09-30T12:39:05.534Z,2.55
2022-09-30T12:44:05.528Z,2.39
2022-09-30T12:49:05.564Z,2.48
2022-09-30T12:54:05.585Z,2.36
2022-09-30T12:59:05.587Z,2.25
2022-09-30T13:04:05.575Z,2.48
2022-09-30T13:09:05.547Z,2.46
2022-09-30T13:14:05.575Z,2.27
2022-09-30T13:19:05.587Z,2.21
2022-09-30T13:24:05.550Z,2.39
2022-09-30T13:29:05.570Z,2.38
2022-09-30T13:34:05.571Z,2.21
2022-09-30T13:39:05.569Z,1.88
2022-09-30T13:44:05.575Z,2.05
2022-09-30T13:49:05.564Z,1.77
2022-09-30T13:54:05.577Z,1.68
2022-09-30T13:59:05.602Z,3.27
2022-09-30T14:04:05.573Z,2.76
2022-09-30T14:09:05.580Z,1.49
2022-09-30T14:14:05.592Z,1.85
2022-09-30T14:19:05.585Z,2.08
2022-09-30T14:24:05.584Z,1.96
2022-09-30T14:29:05.630Z,1.54
2022-09-30T14:34:05.634Z,1.47
2022-09-30T14:39:05.624Z,1.3
2022-09-30T14:44:05.638Z,1.39
2022-09-30T14:49:05.602Z,1.38
2022-09-30T14:54:05.612Z,1.49
2022-09-30T14:59:05.611Z,1.57
2022-09-30T15:04:05.608Z,1.48
2022-09-30T15:09:05.647Z,1.38
2022-09-30T15:14:05.655Z,1.46
2022-09-30T15:19:05.615Z,1.35
2022-09-30T15:24:05.617Z,1.42
2022-09-30T15:29:05.623Z,1.48
2022-09-30T15:34:05.632Z,1.56
2022-09-30T15:39:05.652Z,1.41
2022-09-30T15:44:05.634Z,1.64
2022-09-30T15:49:05.642Z,1.73
2022-09-30T15:54:05.651Z,1.98
2022-09-30T15:59:05.632Z,2.89
2022-09-30T16:04:05.685Z,2.9
2022-09-30T16:09:05.644Z,10.08
2022-09-30T16:14:05.637Z,5.26
2022-09-30T16:19:05.651Z,3.96
2022-09-30T16:24:05.657Z,4.54
2022-09-30T16:29:09.758Z,5.14
2022-09-30T16:34:05.659Z,4.41
2022-09-30T16:39:05.660Z,4.07
2022-09-30T16:44:05.667Z,6.38
2022-09-30T16:49:05.658Z,5.21
2022-09-30T16:54:05.657Z,7.7
2022-09-30T16:59:05.660Z,9.23
2022-09-30T17:04:05.695Z,8.03
2022-09-30T17:09:05.682Z,10.77
2022-09-30T17:14:05.702Z,10.21
2022-09-30T17:19:05.678Z,11.81
2022-09-30T17:24:05.685Z,11.43
2022-09-30T17:29:14.865Z,6.74
2022-09-30T17:34:05.703Z,5.52
2022-09-30T17:39:05.720Z,4.94
2022-09-30T17:44:05.677Z,6.73
2022-09-30T17:49:05.690Z,7.41
2022-09-30T17:54:05.728Z,4.54
2022-09-30T17:59:05.682Z,4.14
2022-09-30T18:04:05.693Z,4.08
2022-09-30T18:09:05.693Z,3.99
2022-09-30T18:14:05.707Z,4.17
2022-09-30T18:19:05.757Z,4.84
2022-09-30T18:24:05.743Z,5.01
2022-09-30T18:29:05.698Z,4.47
2022-09-30T18:34:05.740Z,4.45
2022-09-30T18:39:05.712Z,3.48
2022-09-30T18:44:05.727Z,3.3
2022-09-30T18:49:05.720Z,3.5
2022-09-30T18:54:05.745Z,4.06
2022-09-30T18:59:05.714Z,5.15
2022-09-30T19:04:05.727Z,4.84
2022-09-30T19:09:05.735Z,4.69
2022-09-30T19:14:05.729Z,4.52
2022-09-30T19:19:05.729Z,4.77
2022-09-30T19:24:05.740Z,5.12
2022-09-30T19:29:05.739Z,5.25
2022-09-30T19:34:05.771Z,3.8
2022-09-30T19:39:11.689Z,5.04
2022-09-30T19:44:05.773Z,4.92
2022-09-30T19:49:05.789Z,4.21
2022-09-30T19:54:07.364Z,4.06
2022-09-30T19:59:05.786Z,4.91
2022-09-30T20:04:05.840Z,4.47
2022-09-30T20:09:05.746Z,4.05
2022-09-30T20:14:05.751Z,4.02
2022-09-30T20:24:05.804Z,3.98
2022-09-30T20:29:05.777Z,3.7
2022-09-30T20:34:05.776Z,3.11
2022-09-30T20:39:05.766Z,3.05
2022-09-30T20:44:05.780Z,2.86
2022-09-30T20:49:05.812Z,2.77
2022-09-30T20:54:05.957Z,3.1
2022-09-30T20:59:05.785Z,4.01
2022-09-30T21:04:05.749Z,5.48
2022-09-30T21:09:05.771Z,4.39
2022-09-30T21:14:05.759Z,4.19
2022-09-30T21:19:05.762Z,3.8
2022-09-30T21:24:05.796Z,3.76
2022-09-30T21:29:05.763Z,3.63
2022-09-30T21:34:05.820Z,3.38
2022-09-30T21:39:05.766Z,3.38
2022-09-30T21:44:05.790Z,3.54
2022-09-30T21:49:05.774Z,3.37
2022-09-30T21:54:05.770Z,3.39
2022-09-30T21:59:05.777Z,3.24
2022-09-30T22:04:05.772Z,3.5
2022-09-30T22:09:05.809Z,3.24
2022-09-30T22:14:05.782Z,3.54
2022-09-30T22:19:05.784Z,3.65
2022-09-30T22:24:05.793Z,3.46
2022-09-30T22:29:05.791Z,3.62
2022-09-30T22:34:05.792Z,3.57
2022-09-30T22:39:05.791Z,3.85
2022-09-30T22:44:05.801Z,3.61
2022-09-30T22:49:05.789Z,3.49
2022-09-30T22:54:05.851Z,3.96
2022-09-30T22:59:05.834Z,3.86
2022-09-30T23:04:05.866Z,3.78
2022-09-30T23:09:05.804Z,3.76
2022-09-30T23:14:05.810Z,3.49
2022-09-30T23:19:05.838Z,3.37
2022-09-30T23:24:05.851Z,3.13
2022-09-30T23:29:05.817Z,3.64
2022-09-30T23:34:05.819Z,3.83
2022-09-30T23:39:05.854Z,3.26
2022-09-30T23:44:05.852Z,3.25
2022-09-30T23:49:05.859Z,3.75
2022-09-30T23:54:05.841Z,4.03
2022-09-30T23:59:05.855Z,3.94
